Aérodrome :
LOGIN :

S'inscrire | Disclaimer

   EN    FR    IT 

 










Légende :    VFR   VFR Marginal   IFR   IFR Intensif   IFR Très Intensif
Visi : 
Plafond : 
>= 8 km
>= 3000ft
5 à 8 km
1000 à 3000 ft
1500m à 5 km
500 à 1000 ft
800 à 1500m
200 à 500 ft
< 800m
< 200 ft
Symboles :   Orages  Brouillard  Fortes neiges  Fortes précipitations  Vent > 20 kt
SIGMETs :   Divers  Orages  Givrage  Turbulence  Onde Orograph.  Cendres Volcan.







- Altitude de l'aérodrome : 268 ft
- Code IATA : BFS
- Voir les cartes d'approche


EGAA - Belfast Aldergrove

DERNIER METAR :
  • 132020Z 18012KT 9999 -RA FEW030 11/08 Q1011

METARs EXPIRÉS :
  • 131950Z 18011KT 140V200 9999 -RA FEW022 11/08 Q1012
  • 131920Z 18012KT 9999 -RA FEW022 11/08 Q1012
  • 131850Z 18010KT 9999 FEW020 SCT028 BKN046 11/08 Q1012
  • 131820Z 17009KT 130V200 9999 BKN029 BKN037 11/07 Q1012
  • 131750Z 17009KT 9999 BKN036 10/07 Q1013

TAF TAF EGAA
Valide du 13 à 18h jusqu'au 14 à 18h UTC


131656Z 1318/1418 18012KT 9999 FEW015 SCT030
PROB30
TEMPO 1319/1321 18015G25KT
BECMG 1321/1324 18018G28KT SCT008 BKN012
TEMPO 1321/1413 6000 RA -RADZ
TEMPO 1400/1409 BKN007
PROB30
TEMPO 1402/1407 4000 +RA RADZ BKN004
Pas de NOTAMs connus pour ce terrain.



MET'MAP, la Météo Aéronautique d'un coup d'oeil ! - Copyright ORBIFLY Décembre 2007 - Disclaimer

ORBIFLY MET'MAP TEAM :

Programmation & Développement : Alexandra Zaïnal
Conception & Développement : Baudouin d'Aumeries
Co-Programmation & Développement : Marc-Olivier Méhu
Soutien technique & logistique : Manuel Goepfert

Contact : metmap@orbifly.com




SOURCES & CREDITS :

   NOAA